Moscow, Idaho
Current Conditions -  °F | °C
As of 1:53 AM on Friday 24 Oct 2014 (Local Time) from KPUW Reporting Station
Overcast Overcast  
Wind Chill: 45°   Ceiling: 9000
Heat Index: 47°   Visibility: 10mi
Dew Point: 39°   Wind: 5mph
Humidity: 74%   Direction: 240°WSW
Pressure: 30.06"   Gusts: NA
Location:  46.73°N, 117°W
Report Text: KPUW 240853Z AUTO 24004KT 10SM SCT075 OVC090 08/04 A3006 RMK AO2 SLP184 T00830039 51013
Loading
Personal Weather Stations






























Interactive Weather Map
Tropical Storm Tracking
New forecast layout! Learn more

10-Day Weather Forecast

Advertisements
Track Severe Weather on mobile